createdAt,value
2018-11-02T00:00:29.134Z,1005.84
2018-11-02T00:01:29.103Z,1005.92
2018-11-02T00:02:29.155Z,1005.98
2018-11-02T00:03:29.461Z,1005.93
2018-11-02T00:04:29.885Z,1005.95
2018-11-02T00:05:30.202Z,1005.98
2018-11-02T00:06:30.612Z,1005.96
2018-11-02T00:07:30.713Z,1006.00
2018-11-02T00:08:31.044Z,1005.99
2018-11-02T00:09:31.775Z,1005.97
2018-11-02T00:10:31.563Z,1006.03
2018-11-02T00:11:31.873Z,1006.06
2018-11-02T00:12:32.352Z,1006.02
2018-11-02T00:13:32.619Z,1005.95
2018-11-02T00:14:32.932Z,1006.02
2018-11-02T00:15:34.326Z,1006.08
2018-11-02T00:16:34.539Z,1006.06
2018-11-02T00:17:34.648Z,1006.05
2018-11-02T00:18:35.074Z,1006.11
2018-11-02T00:19:35.491Z,1006.00
2018-11-02T00:20:35.895Z,1006.05
2018-11-02T00:21:36.031Z,1006.06
2018-11-02T00:22:36.307Z,1006.05
2018-11-02T00:23:36.320Z,1006.12
2018-11-02T00:24:36.665Z,1006.01
2018-11-02T00:25:36.750Z,1006.09
2018-11-02T00:26:36.762Z,1006.06
2018-11-02T00:27:36.853Z,1006.00
2018-11-02T00:28:36.963Z,1006.04
2018-11-02T00:29:36.420Z,1006.01
2018-11-02T00:30:37.087Z,1006.02
2018-11-02T00:31:36.967Z,1006.03
2018-11-02T00:32:37.146Z,1005.98
2018-11-02T00:33:37.450Z,1006.03
2018-11-02T00:34:37.538Z,1006.07
2018-11-02T00:35:37.645Z,1006.03
2018-11-02T00:36:37.859Z,1005.99
2018-11-02T00:37:37.923Z,1006.03
2018-11-02T00:38:38.122Z,1006.06
2018-11-02T00:39:38.276Z,1005.98
2018-11-02T00:40:38.475Z,1006.03
2018-11-02T00:41:38.653Z,1006.08
2018-11-02T00:42:39.020Z,1006.11
2018-11-02T00:43:38.840Z,1006.09
2018-11-02T00:44:39.197Z,1006.08
2018-11-02T00:45:39.524Z,1006.13
2018-11-02T00:46:39.882Z,1006.15
2018-11-02T00:47:40.143Z,1006.16
2018-11-02T00:48:40.716Z,1006.10
2018-11-02T00:49:41.020Z,1006.19
2018-11-02T00:50:41.310Z,1006.13
2018-11-02T00:51:41.876Z,1006.23
2018-11-02T00:52:41.621Z,1006.25
2018-11-02T00:53:42.023Z,1006.27
2018-11-02T00:54:42.451Z,1006.31
2018-11-02T00:55:42.816Z,1006.28
2018-11-02T00:56:43.121Z,1006.29
2018-11-02T00:57:43.436Z,1006.22
2018-11-02T00:58:43.743Z,1006.25
2018-11-02T00:59:44.051Z,1006.38
2018-11-02T01:00:44.367Z,1006.31
2018-11-02T01:01:44.641Z,1006.38
2018-11-02T01:02:45.008Z,1006.33
2018-11-02T01:03:45.298Z,1006.37
2018-11-02T01:04:45.627Z,1006.35
2018-11-02T01:05:45.945Z,1006.35
2018-11-02T01:06:46.258Z,1006.39
2018-11-02T01:07:46.624Z,1006.41
2018-11-02T01:08:47.062Z,1006.42
2018-11-02T01:09:47.034Z,1006.47
2018-11-02T01:10:47.452Z,1006.42
2018-11-02T01:11:47.827Z,1006.47
2018-11-02T01:12:48.626Z,1006.43
2018-11-02T01:13:49.247Z,1006.46
2018-11-02T01:14:49.560Z,1006.43
2018-11-02T01:15:49.479Z,1006.46
2018-11-02T01:16:50.332Z,1006.40
2018-11-02T01:18:50.823Z,1006.48
2018-11-02T01:19:50.823Z,1006.40
2018-11-02T01:20:50.641Z,1006.45
2018-11-02T01:21:50.894Z,1006.44
2018-11-02T01:22:51.055Z,1006.43
2018-11-02T01:23:51.465Z,1006.37
2018-11-02T01:24:51.475Z,1006.45
2018-11-02T01:25:51.498Z,1006.40
2018-11-02T01:26:51.789Z,1006.35
2018-11-02T01:27:52.564Z,1006.39
2018-11-02T01:28:52.005Z,1006.44
2018-11-02T01:29:52.273Z,1006.41
2018-11-02T01:30:52.386Z,1006.49
2018-11-02T01:31:52.593Z,1006.46
2018-11-02T01:32:53.051Z,1006.49
2018-11-02T01:33:53.136Z,1006.52
2018-11-02T01:34:53.275Z,1006.56
2018-11-02T01:35:53.542Z,1006.53
2018-11-02T01:36:53.760Z,1006.53
2018-11-02T01:37:53.966Z,1006.53
2018-11-02T01:38:54.025Z,1006.45
2018-11-02T01:39:54.200Z,1006.48
2018-11-02T01:40:54.124Z,1006.50
2018-11-02T01:41:54.309Z,1006.42
2018-11-02T01:42:54.167Z,1006.53
2018-11-02T01:43:54.628Z,1006.50
2018-11-02T01:44:55.038Z,1006.51
2018-11-02T01:45:55.519Z,1006.54
2018-11-02T01:46:55.793Z,1006.55
2018-11-02T01:47:56.144Z,1006.58
2018-11-02T01:48:56.447Z,1006.60
2018-11-02T01:49:56.825Z,1006.56
2018-11-02T01:50:57.195Z,1006.58
2018-11-02T01:51:57.522Z,1006.55
2018-11-02T01:52:57.919Z,1006.52
2018-11-02T01:53:58.238Z,1006.59
2018-11-02T01:54:58.548Z,1006.59
2018-11-02T01:55:58.864Z,1006.61
2018-11-02T01:56:59.217Z,1006.56
2018-11-02T01:57:59.627Z,1006.57
2018-11-02T01:58:59.912Z,1006.55
2018-11-02T02:00:00.281Z,1006.54
2018-11-02T02:01:00.585Z,1006.55
2018-11-02T02:02:01.245Z,1006.56
2018-11-02T02:03:01.676Z,1006.59
2018-11-02T02:04:01.795Z,1006.61
2018-11-02T02:05:02.046Z,1006.64
2018-11-02T02:06:02.751Z,1006.53
2018-11-02T02:07:02.566Z,1006.48
2018-11-02T02:08:03.745Z,1006.62
2018-11-02T02:09:04.561Z,1006.57
2018-11-02T02:10:05.181Z,1006.51
2018-11-02T02:11:05.597Z,1006.61
2018-11-02T02:12:06.129Z,1006.57
2018-11-02T02:13:06.341Z,1006.56
2018-11-02T02:14:06.335Z,1006.56
2018-11-02T02:15:07.033Z,1006.65
2018-11-02T02:16:06.852Z,1006.62
2018-11-02T02:17:06.967Z,1006.64
2018-11-02T02:18:07.157Z,1006.58
2018-11-02T02:19:07.171Z,1006.65
2018-11-02T02:20:07.178Z,1006.69
2018-11-02T02:21:07.346Z,1006.65
2018-11-02T02:22:07.539Z,1006.73
2018-11-02T02:23:07.766Z,1006.63
2018-11-02T02:24:07.817Z,1006.65
2018-11-02T02:25:08.008Z,1006.59
2018-11-02T02:26:07.823Z,1006.58
2018-11-02T02:27:08.151Z,1006.48
2018-11-02T02:28:08.457Z,1006.52
2018-11-02T02:29:09.068Z,1006.51
2018-11-02T02:30:09.573Z,1006.54
2018-11-02T02:31:09.849Z,1006.52
2018-11-02T02:32:09.690Z,1006.49
2018-11-02T02:33:10.063Z,1006.57
2018-11-02T02:34:10.351Z,1006.57
2018-11-02T02:35:10.843Z,1006.56
2018-11-02T02:36:11.119Z,1006.49
2018-11-02T02:37:11.630Z,1006.53
2018-11-02T02:38:11.959Z,1006.55
2018-11-02T02:39:12.355Z,1006.53
2018-11-02T02:40:12.779Z,1006.54
2018-11-02T02:41:13.148Z,1006.56
2018-11-02T02:42:13.503Z,1006.44
2018-11-02T02:43:13.827Z,1006.51
2018-11-02T02:44:14.281Z,1006.52
2018-11-02T02:45:15.105Z,1006.51
2018-11-02T02:46:14.964Z,1006.52
2018-11-02T02:47:15.276Z,1006.58
2018-11-02T02:48:15.604Z,1006.58
2018-11-02T02:49:15.901Z,1006.56
2018-11-02T02:50:16.793Z,1006.55
2018-11-02T02:51:16.635Z,1006.60
2018-11-02T02:52:17.088Z,1006.67
2018-11-02T02:53:17.169Z,1006.68
2018-11-02T02:54:17.468Z,1006.77
2018-11-02T02:55:18.073Z,1006.70
2018-11-02T02:56:18.180Z,1006.84
2018-11-02T02:57:18.294Z,1006.79
2018-11-02T02:58:18.607Z,1006.88
2018-11-02T02:59:19.104Z,1006.85
2018-11-02T03:00:19.841Z,1006.90
2018-11-02T03:01:19.949Z,1006.94
2018-11-02T03:02:20.059Z,1006.95
2018-11-02T03:03:20.284Z,1006.96
2018-11-02T03:04:20.689Z,1007.00
2018-11-02T03:05:20.961Z,1006.98
2018-11-02T03:06:21.213Z,1006.98
2018-11-02T03:07:21.321Z,1007.00
2018-11-02T03:08:21.542Z,1007.03
2018-11-02T03:09:21.744Z,1006.99
2018-11-02T03:10:21.938Z,1007.06
2018-11-02T03:11:21.854Z,1007.09
2018-11-02T03:12:21.853Z,1007.07
2018-11-02T03:13:22.383Z,1007.06
2018-11-02T03:14:22.235Z,1006.99
2018-11-02T03:15:22.485Z,1007.09
2018-11-02T03:16:22.680Z,1007.06
2018-11-02T03:17:22.780Z,1007.09
2018-11-02T03:18:22.914Z,1007.07
2018-11-02T03:19:23.091Z,1007.03
2018-11-02T03:20:23.249Z,1007.07
2018-11-02T03:21:23.444Z,1007.02
2018-11-02T03:22:23.837Z,1007.07
2018-11-02T03:23:23.959Z,1007.08
2018-11-02T03:24:23.943Z,1007.09
2018-11-02T03:25:24.318Z,1007.10
2018-11-02T03:26:24.638Z,1007.11
2018-11-02T03:27:25.089Z,1007.02
2018-11-02T03:28:25.186Z,1007.15
2018-11-02T03:29:25.585Z,1007.14
2018-11-02T03:30:25.896Z,1007.16
2018-11-02T03:31:26.211Z,1007.20
2018-11-02T03:32:26.651Z,1007.25
2018-11-02T03:33:26.953Z,1007.15
2018-11-02T03:34:27.291Z,1007.27
2018-11-02T03:35:27.288Z,1007.31
2018-11-02T03:36:27.644Z,1007.26
2018-11-02T03:37:28.084Z,1007.32
2018-11-02T03:38:28.481Z,1007.32
2018-11-02T03:39:28.967Z,1007.26
2018-11-02T03:40:29.324Z,1007.30
2018-11-02T03:41:29.713Z,1007.28
2018-11-02T03:42:30.138Z,1007.36
2018-11-02T03:43:30.550Z,1007.33
2018-11-02T03:44:30.994Z,1007.43
2018-11-02T03:45:31.293Z,1007.37
2018-11-02T03:46:31.723Z,1007.42
2018-11-02T03:47:32.104Z,1007.41
2018-11-02T03:48:32.642Z,1007.40
2018-11-02T03:49:33.044Z,1007.52
2018-11-02T03:50:33.114Z,1007.51
2018-11-02T03:51:32.986Z,1007.57
2018-11-02T03:52:34.002Z,1007.50
2018-11-02T03:53:34.582Z,1007.61
2018-11-02T03:54:34.995Z,1007.57
2018-11-02T03:55:35.299Z,1007.64
2018-11-02T03:56:35.672Z,1007.68
2018-11-02T03:57:36.036Z,1007.72
2018-11-02T03:58:36.149Z,1007.77
2018-11-02T03:59:36.453Z,1007.83
2018-11-02T04:00:36.666Z,1007.76
2018-11-02T04:01:36.774Z,1007.84
2018-11-02T04:02:36.892Z,1007.91
2018-11-02T04:03:37.178Z,1007.89
2018-11-02T04:04:37.174Z,1007.92
2018-11-02T04:05:37.493Z,1008.03
2018-11-02T04:06:37.581Z,1007.98
2018-11-02T04:07:37.703Z,1007.98
2018-11-02T04:08:37.952Z,1008.08
2018-11-02T04:09:38.225Z,1008.06
2018-11-02T04:10:38.359Z,1008.12
2018-11-02T04:11:38.879Z,1008.13
2018-11-02T04:12:38.664Z,1008.16
2018-11-02T04:13:38.881Z,1008.17
2018-11-02T04:14:39.031Z,1008.18
2018-11-02T04:15:39.055Z,1008.13
2018-11-02T04:16:39.253Z,1008.17
2018-11-02T04:17:39.213Z,1008.18
2018-11-02T04:18:39.576Z,1008.19
2018-11-02T04:19:40.040Z,1008.24
2018-11-02T04:20:40.458Z,1008.16
2018-11-02T04:21:40.822Z,1008.15
2018-11-02T04:22:41.140Z,1008.14
2018-11-02T04:23:41.451Z,1008.17
2018-11-02T04:24:41.801Z,1008.04
2018-11-02T04:25:42.182Z,1008.11
2018-11-02T04:26:42.863Z,1008.19
2018-11-02T04:27:42.711Z,1008.24
2018-11-02T04:28:43.119Z,1008.18
2018-11-02T04:29:43.671Z,1008.19
2018-11-02T04:30:43.594Z,1008.16
2018-11-02T04:31:43.983Z,1008.14
2018-11-02T04:32:44.300Z,1008.19
2018-11-02T04:33:44.689Z,1008.20
2018-11-02T04:34:45.131Z,1008.20
2018-11-02T04:35:45.529Z,1008.19
2018-11-02T04:36:45.942Z,1008.20
2018-11-02T04:37:46.177Z,1008.14
2018-11-02T04:38:46.460Z,1008.24
2018-11-02T04:39:46.786Z,1008.27
2018-11-02T04:40:47.046Z,1008.26
2018-11-02T04:41:47.346Z,1008.31
2018-11-02T04:42:47.647Z,1008.30
2018-11-02T04:44:48.404Z,1008.39
2018-11-02T04:45:49.242Z,1008.33
2018-11-02T04:46:49.352Z,1008.32
2018-11-02T04:47:49.473Z,1008.32
2018-11-02T04:48:49.982Z,1008.40
2018-11-02T04:49:49.525Z,1008.36
2018-11-02T04:50:50.029Z,1008.33
2018-11-02T04:51:50.208Z,1008.32
2018-11-02T04:52:50.626Z,1008.33
2018-11-02T04:53:51.125Z,1008.40
2018-11-02T04:54:51.257Z,1008.32
2018-11-02T04:55:51.358Z,1008.43
2018-11-02T04:56:51.700Z,1008.38
2018-11-02T04:57:51.881Z,1008.45
2018-11-02T04:58:51.990Z,1008.44
2018-11-02T04:59:52.770Z,1008.44
2018-11-02T05:00:52.280Z,1008.51
2018-11-02T05:01:52.183Z,1008.57
2018-11-02T05:03:52.603Z,1008.62
2018-11-02T05:04:52.774Z,1008.64
2018-11-02T05:05:52.883Z,1008.60
2018-11-02T05:06:52.992Z,1008.64
2018-11-02T05:07:53.284Z,1008.54
2018-11-02T05:08:53.649Z,1008.64
2018-11-02T05:09:54.114Z,1008.74
2018-11-02T05:10:54.285Z,1008.65
2018-11-02T05:11:54.427Z,1008.76
2018-11-02T05:12:54.391Z,1008.78
2018-11-02T05:13:54.789Z,1008.81
2018-11-02T05:14:55.576Z,1008.89
2018-11-02T05:15:55.397Z,1008.81
2018-11-02T05:16:55.698Z,1008.77
2018-11-02T05:17:56.401Z,1008.90
2018-11-02T05:18:56.376Z,1008.88
2018-11-02T05:19:56.813Z,1008.88
2018-11-02T05:20:57.150Z,1008.91
2018-11-02T05:21:57.527Z,1008.93
2018-11-02T05:22:57.946Z,1008.82
2018-11-02T05:23:58.325Z,1008.92
2018-11-02T05:24:58.646Z,1008.96
2018-11-02T05:25:59.093Z,1008.97
2018-11-02T05:26:59.508Z,1008.93
2018-11-02T05:28:00.010Z,1009.06
2018-11-02T05:29:00.417Z,1008.99
2018-11-02T05:30:00.836Z,1008.94
2018-11-02T05:31:01.435Z,1008.96
2018-11-02T05:32:01.546Z,1009.05
2018-11-02T05:33:01.985Z,1009.05
2018-11-02T05:34:02.871Z,1009.11
2018-11-02T05:35:02.708Z,1009.05
2018-11-02T05:36:03.507Z,1009.10
2018-11-02T05:37:02.988Z,1009.11
2018-11-02T05:38:04.044Z,1009.12
2018-11-02T05:39:04.355Z,1009.08
2018-11-02T05:40:04.552Z,1009.04
2018-11-02T05:41:05.069Z,1009.16
2018-11-02T05:42:05.390Z,1009.09
2018-11-02T05:43:05.591Z,1009.06
2018-11-02T05:44:05.810Z,1009.14
2018-11-02T05:45:06.251Z,1009.13
2018-11-02T05:46:06.441Z,1009.15
2018-11-02T05:47:06.666Z,1009.18
2018-11-02T05:48:06.766Z,1009.22
2018-11-02T05:49:06.851Z,1009.17
2018-11-02T05:51:07.080Z,1009.21
2018-11-02T05:52:07.184Z,1009.23
2018-11-02T05:53:07.260Z,1009.32
2018-11-02T05:54:07.408Z,1009.27
2018-11-02T05:55:07.298Z,1009.30
2018-11-02T05:56:07.401Z,1009.29
2018-11-02T05:57:07.538Z,1009.31
2018-11-02T05:58:08.018Z,1009.32
2018-11-02T05:59:08.255Z,1009.33
2018-11-02T06:00:08.659Z,1009.35
2018-11-02T06:01:08.300Z,1009.32
2018-11-02T06:02:09.054Z,1009.32
2018-11-02T06:03:09.586Z,1009.36
2018-11-02T06:04:09.633Z,1009.36
2018-11-02T06:05:09.713Z,1009.35
2018-11-02T06:06:09.587Z,1009.34
2018-11-02T06:07:09.897Z,1009.29
2018-11-02T06:09:10.626Z,1009.30
2018-11-02T06:10:10.496Z,1009.30
2018-11-02T06:11:10.998Z,1009.22
2018-11-02T06:12:11.341Z,1009.26
2018-11-02T06:13:11.779Z,1009.25
2018-11-02T06:14:12.215Z,1009.28
2018-11-02T06:15:12.766Z,1009.22
2018-11-02T06:16:12.627Z,1009.21
2018-11-02T06:17:13.032Z,1009.30
2018-11-02T06:18:13.365Z,1009.32
2018-11-02T06:19:13.813Z,1009.34
2018-11-02T06:20:14.149Z,1009.44
2018-11-02T06:21:14.615Z,1009.48
2018-11-02T06:22:14.979Z,1009.51
2018-11-02T06:23:15.329Z,1009.51
2018-11-02T06:24:15.795Z,1009.49
2018-11-02T06:25:16.510Z,1009.48
2018-11-02T06:26:16.412Z,1009.55
2018-11-02T06:27:16.771Z,1009.56
2018-11-02T06:28:17.217Z,1009.49
2018-11-02T06:29:17.600Z,1009.57
2018-11-02T06:30:19.109Z,1009.60
2018-11-02T06:31:19.430Z,1009.58
2018-11-02T06:32:19.634Z,1009.60
2018-11-02T06:33:19.948Z,1009.68
2018-11-02T06:34:20.264Z,1009.49
2018-11-02T06:35:20.786Z,1009.60
2018-11-02T06:36:21.000Z,1009.63
2018-11-02T06:37:21.188Z,1009.61
2018-11-02T06:38:21.620Z,1009.64
2018-11-02T06:39:21.525Z,1009.73
2018-11-02T06:40:22.147Z,1009.69
2018-11-02T06:41:22.271Z,1009.81
2018-11-02T06:42:22.270Z,1009.71
2018-11-02T06:43:22.526Z,1009.76
2018-11-02T06:44:22.720Z,1009.82
2018-11-02T06:45:23.011Z,1009.83
2018-11-02T06:46:23.309Z,1009.92
2018-11-02T06:47:23.519Z,1009.90
2018-11-02T06:48:23.821Z,1009.89
2018-11-02T06:49:24.161Z,1009.90
2018-11-02T06:50:24.341Z,1009.92
2018-11-02T06:51:24.561Z,1009.93
2018-11-02T06:53:24.578Z,1009.94
2018-11-02T06:54:25.024Z,1010.05
2018-11-02T06:55:25.512Z,1010.04
2018-11-02T06:56:26.123Z,1010.09
2018-11-02T06:57:26.076Z,1010.11
2018-11-02T06:58:26.615Z,1010.12
2018-11-02T06:59:26.824Z,1010.12
2018-11-02T07:00:26.970Z,1010.12
2018-11-02T07:01:27.240Z,1010.12
2018-11-02T07:02:27.666Z,1010.15
2018-11-02T07:03:28.236Z,1010.19
2018-11-02T07:04:28.349Z,1010.26
2018-11-02T07:05:28.404Z,1010.25
2018-11-02T07:06:28.752Z,1010.26
2018-11-02T07:07:29.318Z,1010.27
2018-11-02T07:08:29.571Z,1010.28
2018-11-02T07:09:29.956Z,1010.30
2018-11-02T07:10:30.367Z,1010.34
2018-11-02T07:11:30.772Z,1010.37
2018-11-02T07:12:31.215Z,1010.39
2018-11-02T07:13:31.612Z,1010.42
2018-11-02T07:14:32.036Z,1010.43
2018-11-02T07:15:32.429Z,1010.46
2018-11-02T07:16:32.773Z,1010.47
2018-11-02T07:17:33.552Z,1010.49
2018-11-02T07:18:34.063Z,1010.49
2018-11-02T07:19:34.273Z,1010.49
2018-11-02T07:20:34.381Z,1010.50
2018-11-02T07:21:34.277Z,1010.53
2018-11-02T07:22:34.821Z,1010.54
2018-11-02T07:23:35.019Z,1010.56
2018-11-02T07:24:35.028Z,1010.58
2018-11-02T07:25:35.139Z,1010.60
2018-11-02T07:26:35.338Z,1010.60
2018-11-02T07:27:35.356Z,1010.61
2018-11-02T07:28:35.874Z,1010.64
2018-11-02T07:29:35.992Z,1010.67
2018-11-02T07:30:36.146Z,1010.69
2018-11-02T07:31:36.176Z,1010.70
2018-11-02T07:32:36.524Z,1010.74
2018-11-02T07:33:36.414Z,1010.76
2018-11-02T07:34:36.588Z,1010.79
2018-11-02T07:35:36.764Z,1010.79
2018-11-02T07:36:36.562Z,1010.79
2018-11-02T07:37:36.961Z,1010.82
2018-11-02T07:38:37.465Z,1010.81
2018-11-02T07:39:37.577Z,1010.82
2018-11-02T07:40:37.837Z,1010.83
2018-11-02T07:41:38.036Z,1010.85
2018-11-02T07:42:38.222Z,1010.87
2018-11-02T07:43:38.741Z,1010.88
2018-11-02T07:44:38.944Z,1010.90
2018-11-02T07:45:39.055Z,1010.93
2018-11-02T07:46:39.148Z,1010.93
2018-11-02T07:47:39.199Z,1010.95
2018-11-02T07:48:39.469Z,1010.97
2018-11-02T07:49:39.871Z,1011.00
2018-11-02T07:50:39.654Z,1011.01
2018-11-02T07:52:40.088Z,1011.04
2018-11-02T07:53:40.195Z,1011.08
2018-11-02T07:54:40.508Z,1011.12
2018-11-02T07:55:40.822Z,1011.15
2018-11-02T07:56:41.313Z,1011.17
2018-11-02T07:57:41.775Z,1011.20
2018-11-02T07:58:41.817Z,1011.22
2018-11-02T07:59:42.149Z,1011.24
2018-11-02T08:00:42.509Z,1011.26
2018-11-02T08:01:42.998Z,1011.27
2018-11-02T08:02:43.149Z,1011.28
2018-11-02T08:03:43.341Z,1011.29
2018-11-02T08:04:43.755Z,1011.31
2018-11-02T08:05:44.133Z,1011.32
2018-11-02T08:06:44.579Z,1011.32
2018-11-02T08:07:44.448Z,1011.32
2018-11-02T08:08:44.800Z,1011.34
2018-11-02T08:09:45.180Z,1011.35
2018-11-02T08:10:45.515Z,1011.36
2018-11-02T08:11:45.942Z,1011.36
2018-11-02T08:12:46.360Z,1011.36
2018-11-02T08:13:46.759Z,1011.34
2018-11-02T08:14:47.146Z,1011.35
2018-11-02T08:15:47.446Z,1011.36
2018-11-02T08:16:47.842Z,1011.38
2018-11-02T08:17:49.220Z,1011.39
2018-11-02T08:18:49.348Z,1011.41
2018-11-02T08:19:49.314Z,1011.41
2018-11-02T08:20:49.929Z,1011.43
2018-11-02T08:21:49.733Z,1011.45
2018-11-02T08:22:50.357Z,1011.46
2018-11-02T08:23:50.164Z,1011.43
2018-11-02T08:24:50.467Z,1011.43
2018-11-02T08:26:50.766Z,1011.43
2018-11-02T08:27:51.092Z,1011.45
2018-11-02T08:28:51.173Z,1011.45
2018-11-02T08:29:51.379Z,1011.46
2018-11-02T08:30:51.249Z,1011.45
2018-11-02T08:31:51.766Z,1011.45
2018-11-02T08:32:52.018Z,1011.44
2018-11-02T08:33:52.315Z,1011.45
2018-11-02T08:34:52.575Z,1011.47
2018-11-02T08:35:52.663Z,1011.48
2018-11-02T08:36:52.770Z,1011.50
2018-11-02T08:37:52.933Z,1011.52
2018-11-02T08:38:53.080Z,1011.52
2018-11-02T08:39:53.229Z,1011.55
2018-11-02T08:40:53.428Z,1011.55
2018-11-02T08:41:53.612Z,1011.55
2018-11-02T08:42:53.867Z,1011.56
2018-11-02T08:43:54.214Z,1011.58
2018-11-02T08:44:54.275Z,1011.59
2018-11-02T08:45:54.200Z,1011.59
2018-11-02T08:46:54.515Z,1011.59
2018-11-02T08:47:54.908Z,1011.58
2018-11-02T08:48:55.643Z,1011.59
2018-11-02T08:49:55.478Z,1011.59
2018-11-02T08:50:56.041Z,1011.60
2018-11-02T08:51:55.942Z,1011.58
2018-11-02T08:52:55.909Z,1011.61
2018-11-02T08:53:56.372Z,1011.61
2018-11-02T08:54:56.760Z,1011.60
2018-11-02T08:55:57.155Z,1011.60
2018-11-02T08:56:57.452Z,1011.59
2018-11-02T08:57:57.961Z,1011.58
2018-11-02T08:58:58.225Z,1011.58
2018-11-02T08:59:58.514Z,1011.58
2018-11-02T09:00:58.843Z,1011.58
2018-11-02T09:01:59.271Z,1011.60
2018-11-02T09:02:59.302Z,1011.61
2018-11-02T09:03:59.680Z,1011.62
2018-11-02T09:05:00.205Z,1011.65
2018-11-02T09:06:00.538Z,1011.68
2018-11-02T09:07:00.887Z,1011.67
2018-11-02T09:08:01.154Z,1011.66
2018-11-02T09:09:01.998Z,1011.65
2018-11-02T09:10:01.679Z,1011.65
2018-11-02T09:11:02.329Z,1011.64
2018-11-02T09:12:02.468Z,1011.65
2018-11-02T09:13:02.651Z,1011.63
2018-11-02T09:14:02.830Z,1011.63
2018-11-02T09:15:02.850Z,1011.62
2018-11-02T09:16:02.820Z,1011.61
2018-11-02T09:17:04.329Z,1011.61
2018-11-02T09:18:04.637Z,1011.65
2018-11-02T09:19:05.091Z,1011.68
2018-11-02T09:20:04.975Z,1011.70
2018-11-02T09:21:05.580Z,1011.72
2018-11-02T09:22:05.994Z,1011.73
2018-11-02T09:23:06.297Z,1011.74
2018-11-02T09:24:06.735Z,1011.72
2018-11-02T09:25:06.631Z,1011.72
2018-11-02T09:26:06.728Z,1011.73
2018-11-02T09:27:06.848Z,1011.76
2018-11-02T09:28:07.015Z,1011.78
2018-11-02T09:29:07.142Z,1011.78
2018-11-02T09:30:07.584Z,1011.80
2018-11-02T09:31:07.534Z,1011.82
2018-11-02T09:32:07.744Z,1011.82
2018-11-02T09:33:08.010Z,1011.81
2018-11-02T09:34:08.125Z,1011.80
2018-11-02T09:35:08.336Z,1011.81
2018-11-02T09:36:08.455Z,1011.82
2018-11-02T09:37:08.291Z,1011.83
2018-11-02T09:38:08.908Z,1011.83
2018-11-02T09:39:09.139Z,1011.84
2018-11-02T09:40:09.191Z,1011.84
2018-11-02T09:41:08.951Z,1011.83
2018-11-02T09:42:09.848Z,1011.83
2018-11-02T09:43:09.647Z,1011.84
2018-11-02T09:44:10.066Z,1011.83
2018-11-02T09:45:10.654Z,1011.83
2018-11-02T09:46:10.896Z,1011.82
2018-11-02T09:47:11.332Z,1011.92
2018-11-02T09:48:11.725Z,1011.91
2018-11-02T09:49:12.299Z,1011.89
2018-11-02T09:50:12.175Z,1011.85
2018-11-02T09:51:12.713Z,1011.83
2018-11-02T09:52:13.161Z,1011.84
2018-11-02T09:53:13.430Z,1011.83
2018-11-02T09:54:13.719Z,1011.82
2018-11-02T09:55:14.228Z,1011.81
2018-11-02T09:56:14.194Z,1011.79
2018-11-02T09:57:14.755Z,1011.80
2018-11-02T09:58:14.701Z,1011.78
2018-11-02T09:59:15.082Z,1011.79
2018-11-02T10:00:16.077Z,1011.79
2018-11-02T10:01:15.905Z,1011.80
2018-11-02T10:02:16.458Z,1011.81
2018-11-02T10:03:17.013Z,1011.83
2018-11-02T10:04:16.866Z,1011.84
2018-11-02T10:05:17.322Z,1011.85
2018-11-02T10:06:17.716Z,1011.85
2018-11-02T10:07:18.688Z,1011.85
2018-11-02T10:08:19.521Z,1011.85
2018-11-02T10:09:20.028Z,1011.86
2018-11-02T10:10:20.452Z,1011.89
2018-11-02T10:11:20.386Z,1011.91
2018-11-02T10:12:20.968Z,1011.94
2018-11-02T10:13:20.960Z,1011.96
2018-11-02T10:14:20.843Z,1011.98
2018-11-02T10:15:21.219Z,1011.98
2018-11-02T10:16:21.401Z,1011.99
2018-11-02T10:17:21.616Z,1012.00
2018-11-02T10:18:21.721Z,1012.01
2018-11-02T10:19:21.939Z,1012.00
2018-11-02T10:20:22.036Z,1011.97
2018-11-02T10:21:22.214Z,1011.96
2018-11-02T10:22:22.256Z,1011.96
2018-11-02T10:23:22.266Z,1011.96
2018-11-02T10:24:22.302Z,1011.97
2018-11-02T10:25:22.393Z,1011.99
2018-11-02T10:26:22.389Z,1011.98
2018-11-02T10:27:22.677Z,1011.98
2018-11-02T10:28:22.991Z,1011.98
2018-11-02T10:29:23.333Z,1011.99
2018-11-02T10:30:23.349Z,1011.98
2018-11-02T10:31:23.549Z,1011.95
2018-11-02T10:32:23.809Z,1012.00
2018-11-02T10:33:24.166Z,1012.00
2018-11-02T10:34:24.319Z,1012.02
2018-11-02T10:35:24.254Z,1012.03
2018-11-02T10:36:24.674Z,1012.04
2018-11-02T10:37:25.144Z,1012.06
2018-11-02T10:38:25.542Z,1012.07
2018-11-02T10:39:25.786Z,1012.14
2018-11-02T10:40:25.715Z,1012.13
2018-11-02T10:41:26.004Z,1012.11
2018-11-02T10:42:26.373Z,1012.11
2018-11-02T10:43:26.250Z,1012.09
2018-11-02T10:44:26.737Z,1012.09
2018-11-02T10:45:26.664Z,1012.09
2018-11-02T10:46:27.088Z,1012.07
2018-11-02T10:47:27.544Z,1012.08
2018-11-02T10:48:28.105Z,1012.04
2018-11-02T10:49:28.106Z,1012.04
2018-11-02T10:50:28.429Z,1012.06
2018-11-02T10:51:29.160Z,1012.08
2018-11-02T10:52:29.047Z,1012.07
2018-11-02T10:53:29.363Z,1012.09
2018-11-02T10:54:29.801Z,1012.10
2018-11-02T10:55:30.220Z,1012.12
2018-11-02T10:56:30.700Z,1012.12
2018-11-02T10:57:30.815Z,1012.13
2018-11-02T10:58:31.108Z,1012.12
2018-11-02T10:59:31.451Z,1012.11
2018-11-02T11:00:31.836Z,1012.03
2018-11-02T11:01:32.291Z,1012.04
2018-11-02T11:02:32.702Z,1012.07
2018-11-02T11:03:32.808Z,1012.09
2018-11-02T11:04:33.813Z,1012.10
2018-11-02T11:05:34.549Z,1012.10
2018-11-02T11:06:34.848Z,1012.07
2018-11-02T11:07:35.263Z,1012.10
2018-11-02T11:08:35.642Z,1012.09
2018-11-02T11:09:36.130Z,1012.03
2018-11-02T11:10:36.520Z,1011.90
2018-11-02T11:11:36.597Z,1011.91
2018-11-02T11:12:37.087Z,1011.95
2018-11-02T11:13:37.346Z,1011.98
2018-11-02T11:14:37.316Z,1011.97
2018-11-02T11:15:37.466Z,1011.91
2018-11-02T11:16:37.572Z,1011.91
2018-11-02T11:17:37.761Z,1011.94
2018-11-02T11:18:37.887Z,1011.95
2018-11-02T11:19:37.988Z,1011.95
2018-11-02T11:20:38.226Z,1011.94
2018-11-02T11:21:38.411Z,1011.94
2018-11-02T11:22:38.607Z,1011.94
2018-11-02T11:23:38.789Z,1011.92
2018-11-02T11:24:38.953Z,1011.88
2018-11-02T11:25:39.025Z,1011.98
2018-11-02T11:26:39.081Z,1011.90
2018-11-02T11:27:39.126Z,1011.94
2018-11-02T11:28:39.318Z,1011.94
2018-11-02T11:29:39.257Z,1011.91
2018-11-02T11:30:39.654Z,1011.92
2018-11-02T11:31:39.970Z,1011.91
2018-11-02T11:32:40.436Z,1011.88
2018-11-02T11:33:40.485Z,1011.83
2018-11-02T11:34:41.106Z,1011.83
2018-11-02T11:35:40.910Z,1011.79
2018-11-02T11:36:41.388Z,1011.78
2018-11-02T11:37:41.748Z,1011.79
2018-11-02T11:38:41.842Z,1011.70
2018-11-02T11:39:42.582Z,1011.75
2018-11-02T11:40:42.386Z,1011.76
2018-11-02T11:41:42.794Z,1011.75
2018-11-02T11:42:43.207Z,1011.75
2018-11-02T11:43:43.729Z,1011.74
2018-11-02T11:44:43.619Z,1011.69
2018-11-02T11:45:43.937Z,1011.68
2018-11-02T11:46:44.256Z,1011.70
2018-11-02T11:47:44.666Z,1011.72
2018-11-02T11:48:45.113Z,1011.76
2018-11-02T11:49:45.396Z,1011.68
2018-11-02T11:50:45.406Z,1011.71
2018-11-02T11:51:45.722Z,1011.75
2018-11-02T11:52:46.039Z,1011.73
2018-11-02T11:53:46.649Z,1011.72
2018-11-02T11:54:46.971Z,1011.67
2018-11-02T11:55:47.629Z,1011.72
2018-11-02T11:56:47.478Z,1011.66
2018-11-02T11:57:47.794Z,1011.64
2018-11-02T11:58:48.776Z,1011.67
2018-11-02T11:59:49.119Z,1011.68
2018-11-02T12:00:49.944Z,1011.75
2018-11-02T12:01:50.173Z,1011.75
2018-11-02T12:02:50.672Z,1011.71
2018-11-02T12:03:50.785Z,1011.73
2018-11-02T12:04:51.073Z,1011.69
2018-11-02T12:05:51.206Z,1011.71
2018-11-02T12:06:51.533Z,1011.74
2018-11-02T12:07:51.731Z,1011.78
2018-11-02T12:08:51.942Z,1011.82
2018-11-02T12:09:52.012Z,1011.84
2018-11-02T12:10:51.928Z,1011.91
2018-11-02T12:11:52.366Z,1011.91
2018-11-02T12:12:52.563Z,1011.93
2018-11-02T12:13:52.867Z,1011.91
2018-11-02T12:14:53.000Z,1011.90
2018-11-02T12:15:53.160Z,1011.88
2018-11-02T12:16:53.242Z,1011.81